createdAt,value
2022-12-09T00:00:54.090Z,14.73
2022-12-09T00:03:23.904Z,13.70
2022-12-09T00:05:50.976Z,12.60
2022-12-09T00:08:17.703Z,15.10
2022-12-09T00:10:45.457Z,13.37
2022-12-09T00:13:12.251Z,11.70
2022-12-09T00:15:42.736Z,12.50
2022-12-09T00:18:10.160Z,12.33
2022-12-09T00:20:36.821Z,12.43
2022-12-09T00:23:03.542Z,12.23
2022-12-09T00:25:30.254Z,13.10
2022-12-09T00:27:57.638Z,12.10
2022-12-09T00:30:24.439Z,10.20
2022-12-09T00:32:51.275Z,12.47
2022-12-09T00:35:17.971Z,12.57
2022-12-09T00:37:44.813Z,11.40
2022-12-09T00:40:12.222Z,13.27
2022-12-09T00:42:38.897Z,10.67
2022-12-09T00:45:07.765Z,10.67
2022-12-09T00:47:34.916Z,12.57
2022-12-09T00:50:01.830Z,12.47
2022-12-09T00:52:28.825Z,11.80
2022-12-09T00:54:55.529Z,11.10
2022-12-09T00:57:22.270Z,12.47
2022-12-09T00:59:48.873Z,12.13
2022-12-09T01:02:15.724Z,10.57
2022-12-09T01:04:42.617Z,12.20
2022-12-09T01:07:10.907Z,12.60
2022-12-09T01:09:37.795Z,12.60
2022-12-09T01:12:04.816Z,14.20
2022-12-09T01:14:31.571Z,14.27
2022-12-09T01:16:58.267Z,13.90
2022-12-09T01:19:24.951Z,13.83
2022-12-09T01:21:55.494Z,12.47
2022-12-09T01:24:22.879Z,12.40
2022-12-09T01:26:49.633Z,11.87
2022-12-09T01:29:16.351Z,12.77
2022-12-09T01:31:43.123Z,11.23
2022-12-09T01:34:10.257Z,12.47
2022-12-09T01:36:37.007Z,11.47
2022-12-09T01:39:03.672Z,13.70
2022-12-09T01:41:30.327Z,13.13
2022-12-09T01:44:12.600Z,15.07
2022-12-09T01:46:40.072Z,13.60
2022-12-09T01:49:09.279Z,12.47
2022-12-09T01:51:36.877Z,15.23
2022-12-09T01:54:03.938Z,14.70
2022-12-09T01:56:34.194Z,16.30
2022-12-09T01:59:07.010Z,15.53
2022-12-09T02:01:34.275Z,17.20
2022-12-09T02:04:01.212Z,15.57
2022-12-09T02:06:28.209Z,14.57
2022-12-09T02:08:55.662Z,15.30
2022-12-09T02:11:34.445Z,16.20
2022-12-09T02:14:18.100Z,16.10
2022-12-09T02:16:58.591Z,14.67
2022-12-09T02:19:52.441Z,17.60
2022-12-09T02:22:25.711Z,14.67
2022-12-09T02:25:07.391Z,14.20
2022-12-09T02:27:39.760Z,16.20
2022-12-09T02:30:17.103Z,16.77
2022-12-09T02:33:13.207Z,17.90
2022-12-09T02:35:55.641Z,16.53
2022-12-09T02:38:32.487Z,17.30
2022-12-09T02:41:04.309Z,16.80
2022-12-09T02:43:35.507Z,18.90
2022-12-09T02:46:05.347Z,17.43
2022-12-09T02:48:36.769Z,16.30
2022-12-09T02:51:07.951Z,16.80
2022-12-09T02:53:36.453Z,17.50
2022-12-09T02:56:05.808Z,16.97
2022-12-09T02:58:32.525Z,15.50
2022-12-09T03:00:59.750Z,16.20
2022-12-09T03:03:29.353Z,15.37
2022-12-09T03:05:56.360Z,12.00
2022-12-09T03:08:38.891Z,14.37
2022-12-09T03:11:09.010Z,16.50
2022-12-09T03:13:56.690Z,14.33
2022-12-09T03:16:35.106Z,16.57
2022-12-09T03:19:22.170Z,16.73
2022-12-09T03:21:51.936Z,16.17
2022-12-09T03:24:24.403Z,17.60
2022-12-09T03:26:52.587Z,17.73
2022-12-09T03:29:23.183Z,17.80
2022-12-09T03:31:51.707Z,15.70
2022-12-09T03:34:22.755Z,16.13
2022-12-09T03:36:52.596Z,15.70
2022-12-09T03:39:25.658Z,14.60
2022-12-09T03:41:56.523Z,17.63
2022-12-09T03:44:52.517Z,17.00
2022-12-09T03:47:19.606Z,16.97
2022-12-09T03:49:46.480Z,19.47
2022-12-09T03:52:26.492Z,16.60
2022-12-09T03:55:01.059Z,16.10
2022-12-09T03:57:29.203Z,17.33
2022-12-09T04:00:01.527Z,16.60
2022-12-09T04:02:29.335Z,16.97
2022-12-09T04:04:56.440Z,15.83
2022-12-09T04:07:23.531Z,16.00
2022-12-09T04:09:50.700Z,15.33
2022-12-09T04:12:17.650Z,17.20
2022-12-09T04:14:44.400Z,14.83
2022-12-09T04:17:12.039Z,15.30
2022-12-09T04:19:38.953Z,14.30
2022-12-09T04:22:05.650Z,14.07
2022-12-09T04:24:32.387Z,14.47
2022-12-09T04:26:59.012Z,14.70
2022-12-09T04:29:26.015Z,14.53
2022-12-09T04:31:52.841Z,14.60
2022-12-09T04:34:19.839Z,15.30
2022-12-09T04:36:47.925Z,14.30
2022-12-09T04:39:14.548Z,14.20
2022-12-09T04:41:41.331Z,15.97
2022-12-09T04:44:07.991Z,14.83
2022-12-09T04:46:34.997Z,15.20
2022-12-09T04:49:01.853Z,15.17
2022-12-09T04:51:31.330Z,14.70
2022-12-09T04:54:02.381Z,14.30
2022-12-09T04:56:29.023Z,15.27
2022-12-09T04:58:55.806Z,14.83
2022-12-09T05:01:30.146Z,14.00
2022-12-09T05:03:57.888Z,14.33
2022-12-09T05:06:25.221Z,14.60
2022-12-09T05:08:52.188Z,15.60
2022-12-09T05:11:20.758Z,13.67
2022-12-09T05:13:47.939Z,13.70
2022-12-09T05:16:17.446Z,15.23
2022-12-09T05:18:46.598Z,16.17
2022-12-09T05:21:16.180Z,15.10
2022-12-09T05:23:43.899Z,13.70
2022-12-09T05:26:13.907Z,15.40
2022-12-09T05:28:41.038Z,15.77
2022-12-09T05:31:12.314Z,14.63
2022-12-09T05:33:39.706Z,15.27
2022-12-09T05:36:10.530Z,15.73
2022-12-09T05:38:37.612Z,15.13
2022-12-09T05:41:04.667Z,16.10
2022-12-09T05:43:32.866Z,14.97
2022-12-09T05:46:01.048Z,15.23
2022-12-09T05:48:27.949Z,14.80
2022-12-09T05:50:58.344Z,15.33
2022-12-09T05:53:25.354Z,17.10
2022-12-09T05:55:52.536Z,16.60
2022-12-09T05:58:20.481Z,15.90
2022-12-09T06:00:48.418Z,17.40
2022-12-09T06:03:16.128Z,17.13
2022-12-09T06:05:43.376Z,17.43
2022-12-09T06:08:10.647Z,17.10
2022-12-09T06:10:41.373Z,16.67
2022-12-09T06:13:08.656Z,19.60
2022-12-09T06:15:36.018Z,15.13
2022-12-09T06:18:03.399Z,18.50
2022-12-09T06:20:30.770Z,17.23
2022-12-09T06:22:57.629Z,17.03
2022-12-09T06:25:24.768Z,17.70
2022-12-09T06:27:52.724Z,16.27
2022-12-09T06:30:19.785Z,16.13
2022-12-09T06:32:46.863Z,16.07
2022-12-09T06:35:14.161Z,16.50
2022-12-09T06:37:41.681Z,17.80
2022-12-09T06:40:09.404Z,15.20
2022-12-09T06:42:36.953Z,17.67
2022-12-09T06:45:04.204Z,16.10
2022-12-09T06:47:31.370Z,16.30
2022-12-09T06:50:06.524Z,15.90
2022-12-09T06:52:34.342Z,13.50
2022-12-09T06:55:01.430Z,15.97
2022-12-09T06:57:28.690Z,16.00
2022-12-09T06:59:55.670Z,14.87
2022-12-09T07:02:22.811Z,17.00
2022-12-09T07:04:57.140Z,15.23
2022-12-09T07:07:24.007Z,13.77
2022-12-09T07:09:51.209Z,15.77
2022-12-09T07:12:18.360Z,15.70
2022-12-09T07:14:45.129Z,15.97
2022-12-09T07:17:20.115Z,14.20
2022-12-09T07:19:47.363Z,14.10
2022-12-09T07:22:14.645Z,16.00
2022-12-09T07:24:41.959Z,14.13
2022-12-09T07:27:15.818Z,14.33
2022-12-09T07:29:45.895Z,13.40
2022-12-09T07:32:12.589Z,14.67
2022-12-09T07:34:39.876Z,14.07
2022-12-09T07:37:06.615Z,13.37
2022-12-09T07:39:33.642Z,13.63
2022-12-09T07:42:00.814Z,12.93
2022-12-09T07:44:28.301Z,12.70
2022-12-09T07:46:55.850Z,13.20
2022-12-09T07:49:23.245Z,13.33
2022-12-09T07:51:50.837Z,13.10
2022-12-09T07:54:19.115Z,13.10
2022-12-09T07:56:46.296Z,13.77
2022-12-09T07:59:15.228Z,14.93
2022-12-09T08:01:42.218Z,12.57
2022-12-09T08:04:09.217Z,14.07
2022-12-09T08:06:36.844Z,14.00
2022-12-09T08:09:07.409Z,13.83
2022-12-09T08:11:35.091Z,16.00
2022-12-09T08:14:11.058Z,15.77
2022-12-09T08:16:40.771Z,15.70
2022-12-09T08:19:08.139Z,16.70
2022-12-09T08:21:35.141Z,17.17
2022-12-09T08:24:05.656Z,18.10
2022-12-09T08:26:34.503Z,17.30
2022-12-09T08:29:01.954Z,18.97
2022-12-09T08:31:29.587Z,18.40
2022-12-09T08:33:56.805Z,18.90
2022-12-09T08:36:27.792Z,17.27
2022-12-09T08:38:58.103Z,19.37
2022-12-09T08:41:38.070Z,17.83
2022-12-09T08:44:10.349Z,19.13
2022-12-09T08:46:39.091Z,18.60
2022-12-09T08:49:07.204Z,18.07
2022-12-09T08:51:35.026Z,17.97
2022-12-09T08:54:02.668Z,18.10
2022-12-09T08:56:30.071Z,18.37
2022-12-09T08:58:57.231Z,16.50
2022-12-09T09:01:26.834Z,16.07
2022-12-09T09:03:53.837Z,17.10
2022-12-09T09:06:21.156Z,16.20
2022-12-09T09:08:48.027Z,15.50
2022-12-09T09:11:18.864Z,15.90
2022-12-09T09:13:47.877Z,15.00
2022-12-09T09:16:17.761Z,14.63
2022-12-09T09:18:45.570Z,15.00
2022-12-09T09:21:15.376Z,15.60
2022-12-09T09:23:43.136Z,15.50
2022-12-09T09:26:15.228Z,15.30
2022-12-09T09:28:43.258Z,12.83
2022-12-09T09:31:16.642Z,14.70
2022-12-09T09:33:44.414Z,15.60
2022-12-09T09:36:14.983Z,13.50
2022-12-09T09:38:41.896Z,14.10
2022-12-09T09:41:33.272Z,14.30
2022-12-09T09:44:01.095Z,14.47
2022-12-09T09:46:38.051Z,13.80
2022-12-09T09:49:08.536Z,14.10
2022-12-09T09:51:35.996Z,14.00
2022-12-09T09:54:08.470Z,13.80
2022-12-09T09:56:43.771Z,12.30
2022-12-09T09:59:19.825Z,13.90
2022-12-09T10:02:12.881Z,14.20
2022-12-09T10:04:46.125Z,12.73
2022-12-09T10:07:40.928Z,14.63
2022-12-09T10:10:17.213Z,13.40
2022-12-09T10:13:02.861Z,14.70
2022-12-09T10:15:41.943Z,14.20
2022-12-09T10:18:19.317Z,13.57
2022-12-09T10:20:46.902Z,14.10
2022-12-09T10:23:15.928Z,12.80
2022-12-09T10:25:52.920Z,12.37
2022-12-09T10:28:30.626Z,13.33
2022-12-09T10:30:58.155Z,12.37
2022-12-09T10:33:30.736Z,12.70
2022-12-09T10:35:57.788Z,11.80
2022-12-09T10:38:26.717Z,13.77
2022-12-09T10:41:44.831Z,14.40
2022-12-09T10:44:26.079Z,14.87
2022-12-09T10:47:00.722Z,13.50
2022-12-09T10:49:28.834Z,14.13
2022-12-09T10:51:57.417Z,13.03
2022-12-09T10:54:37.319Z,13.33
2022-12-09T10:57:25.870Z,14.30
2022-12-09T11:00:02.877Z,12.37
2022-12-09T11:02:32.079Z,11.73
2022-12-09T11:05:23.109Z,11.80
2022-12-09T11:07:52.355Z,14.17
2022-12-09T11:10:23.933Z,12.73
2022-12-09T11:12:56.047Z,12.00
2022-12-09T11:15:29.882Z,12.30
2022-12-09T11:17:56.997Z,14.07
2022-12-09T11:20:27.559Z,12.50
2022-12-09T11:23:02.509Z,10.73
2022-12-09T11:25:36.307Z,8.93
2022-12-09T11:28:34.354Z,9.43
2022-12-09T11:31:32.783Z,10.83
2022-12-09T11:34:04.428Z,10.20
2022-12-09T11:36:36.966Z,10.20
2022-12-09T11:39:15.567Z,10.50
2022-12-09T11:42:06.218Z,9.23
2022-12-09T11:44:36.085Z,10.90
2022-12-09T11:47:06.164Z,9.47
2022-12-09T11:49:36.606Z,10.27
2022-12-09T11:52:22.781Z,10.50
2022-12-09T11:55:11.527Z,10.17
2022-12-09T11:57:44.219Z,10.67
2022-12-09T12:00:18.405Z,10.33
2022-12-09T12:02:58.582Z,10.00
2022-12-09T12:05:47.809Z,9.10
2022-12-09T12:08:14.795Z,9.90
2022-12-09T12:10:45.764Z,10.63
2022-12-09T12:13:39.890Z,10.80
2022-12-09T12:16:37.678Z,10.20
2022-12-09T12:19:29.118Z,9.93
2022-12-09T12:22:24.989Z,10.13
2022-12-09T12:25:03.421Z,10.73
2022-12-09T12:27:46.306Z,10.07
2022-12-09T12:30:19.471Z,13.70
2022-12-09T12:35:54.835Z,11.53
2022-12-09T12:38:43.989Z,10.53
2022-12-09T12:41:16.480Z,10.60
2022-12-09T12:44:19.662Z,12.70
2022-12-09T12:46:57.299Z,10.50
2022-12-09T12:49:47.476Z,12.03
2022-12-09T12:55:26.195Z,11.50
2022-12-09T12:58:03.027Z,11.07
2022-12-09T13:00:44.901Z,11.87
2022-12-09T13:03:26.008Z,12.27
2022-12-09T13:05:55.876Z,11.33
2022-12-09T13:08:22.501Z,11.80
2022-12-09T13:10:53.574Z,11.67
2022-12-09T13:13:32.305Z,12.93
2022-12-09T13:16:24.649Z,12.33
2022-12-09T13:18:51.757Z,12.27
2022-12-09T13:21:19.385Z,12.60
2022-12-09T13:24:13.621Z,11.63
2022-12-09T13:27:11.604Z,10.80
2022-12-09T13:29:50.161Z,10.53
2022-12-09T13:32:35.668Z,10.83
2022-12-09T13:35:10.355Z,11.83
2022-12-09T13:37:36.935Z,11.53
2022-12-09T13:40:31.345Z,11.10
2022-12-09T13:42:57.911Z,12.60
2022-12-09T13:45:30.349Z,11.13
2022-12-09T13:48:00.660Z,11.73
2022-12-09T13:50:55.987Z,10.60
2022-12-09T13:53:45.662Z,12.00
2022-12-09T13:56:26.465Z,11.17
2022-12-09T13:59:11.584Z,11.90
2022-12-09T14:02:03.902Z,11.50
2022-12-09T14:04:34.940Z,12.07
2022-12-09T14:07:10.526Z,11.77
2022-12-09T14:09:48.967Z,10.90
2022-12-09T14:12:44.130Z,11.80
2022-12-09T14:15:26.088Z,10.77
2022-12-09T14:18:01.683Z,11.70
2022-12-09T14:20:35.131Z,11.20
2022-12-09T14:23:07.862Z,12.07
2022-12-09T14:25:34.447Z,10.80
2022-12-09T14:28:10.270Z,10.07
2022-12-09T14:30:53.354Z,11.27
2022-12-09T14:33:32.407Z,12.10
2022-12-09T14:36:19.212Z,10.93
2022-12-09T14:39:23.146Z,11.73
2022-12-09T14:42:09.673Z,11.10
2022-12-09T14:45:01.937Z,10.73
2022-12-09T14:47:31.598Z,10.90
2022-12-09T14:50:12.350Z,11.17
2022-12-09T14:53:00.974Z,10.77
2022-12-09T14:55:29.541Z,11.60
2022-12-09T14:57:59.842Z,10.40
2022-12-09T15:00:30.132Z,12.07
2022-12-09T15:03:30.602Z,10.77
2022-12-09T15:06:02.171Z,10.53
2022-12-09T15:08:40.499Z,10.50
2022-12-09T15:11:16.141Z,12.57
2022-12-09T15:13:46.077Z,11.53
2022-12-09T15:16:15.859Z,10.83
2022-12-09T15:18:44.318Z,10.10
2022-12-09T15:21:20.609Z,10.50
2022-12-09T15:23:47.269Z,11.70
2022-12-09T15:26:28.968Z,10.70
2022-12-09T15:28:59.295Z,10.83
2022-12-09T15:31:28.217Z,10.30
2022-12-09T15:33:57.370Z,10.13
2022-12-09T15:36:44.113Z,9.87
2022-12-09T15:39:22.548Z,10.27
2022-12-09T15:42:07.849Z,10.23
2022-12-09T15:44:53.730Z,11.50
2022-12-09T15:47:43.121Z,11.83
2022-12-09T15:50:23.354Z,11.57
2022-12-09T15:53:13.982Z,10.80
2022-12-09T15:56:07.872Z,10.30
2022-12-09T15:58:42.285Z,12.50
2022-12-09T16:01:09.573Z,12.07
2022-12-09T16:03:36.851Z,10.57
2022-12-09T16:06:07.389Z,12.67
2022-12-09T16:08:39.671Z,11.30
2022-12-09T16:11:06.933Z,12.50
2022-12-09T16:13:33.686Z,11.67
2022-12-09T16:16:02.896Z,13.20
2022-12-09T16:18:35.469Z,12.00
2022-12-09T16:21:24.972Z,12.33
2022-12-09T16:23:53.540Z,11.57
2022-12-09T16:26:32.113Z,12.90
2022-12-09T16:29:01.728Z,12.10
2022-12-09T16:31:29.098Z,11.23
2022-12-09T16:33:56.459Z,11.13
2022-12-09T16:36:30.899Z,11.80
2022-12-09T16:39:09.463Z,12.33
2022-12-09T16:42:19.176Z,12.40
2022-12-09T16:44:45.784Z,12.90
2022-12-09T16:47:18.158Z,16.00
2022-12-09T16:49:47.214Z,12.03
2022-12-09T16:52:24.875Z,13.20
2022-12-09T16:54:51.672Z,13.87
2022-12-09T16:57:20.113Z,12.87
2022-12-09T16:59:47.432Z,15.23
2022-12-09T17:02:32.184Z,14.70
2022-12-09T17:05:00.484Z,13.27
2022-12-09T17:07:27.157Z,13.30
2022-12-09T17:09:53.759Z,14.60
2022-12-09T17:12:20.460Z,13.30
2022-12-09T17:14:47.242Z,14.10
2022-12-09T17:17:14.000Z,13.87
2022-12-09T17:19:42.157Z,14.20
2022-12-09T17:22:09.597Z,14.60
2022-12-09T17:24:36.554Z,13.97
2022-12-09T17:27:03.341Z,13.20
2022-12-09T17:29:29.991Z,14.33
2022-12-09T17:31:56.703Z,12.83
2022-12-09T17:34:23.350Z,16.10
2022-12-09T17:36:49.923Z,14.43
2022-12-09T17:39:16.704Z,13.03
2022-12-09T17:41:43.382Z,14.17
2022-12-09T17:44:10.052Z,14.43
2022-12-09T17:46:36.668Z,16.20
2022-12-09T17:49:03.273Z,14.97
2022-12-09T17:51:35.703Z,14.60
2022-12-09T17:54:03.474Z,15.60
2022-12-09T17:56:30.072Z,15.40
2022-12-09T17:59:03.512Z,14.63
2022-12-09T18:01:31.390Z,14.53
2022-12-09T18:04:04.684Z,15.57
2022-12-09T18:06:36.095Z,15.53
2022-12-09T18:09:04.733Z,15.13
2022-12-09T18:11:31.663Z,14.03
2022-12-09T18:13:58.628Z,14.80
2022-12-09T18:16:25.378Z,14.50
2022-12-09T18:18:52.449Z,13.70
2022-12-09T18:21:19.958Z,15.67
2022-12-09T18:23:48.188Z,17.23
2022-12-09T18:26:18.970Z,16.53
2022-12-09T18:28:45.834Z,15.80
2022-12-09T18:31:19.090Z,14.30
2022-12-09T18:33:46.447Z,17.17
2022-12-09T18:36:15.796Z,14.50
2022-12-09T18:38:43.421Z,15.93
2022-12-09T18:41:18.725Z,15.53
2022-12-09T18:43:47.075Z,15.67
2022-12-09T18:46:25.455Z,15.23
2022-12-09T18:49:04.737Z,16.20
2022-12-09T18:51:32.644Z,14.40
2022-12-09T18:54:00.405Z,14.37
2022-12-09T18:56:28.170Z,16.10
2022-12-09T18:59:11.510Z,14.57
2022-12-09T19:01:41.614Z,15.47
2022-12-09T19:04:22.883Z,15.97
2022-12-09T19:06:51.871Z,16.33
2022-12-09T19:09:21.585Z,16.13
2022-12-09T19:11:49.595Z,14.70
2022-12-09T19:14:18.330Z,14.67
2022-12-09T19:16:45.815Z,14.37
2022-12-09T19:19:14.516Z,14.83
2022-12-09T19:21:41.459Z,13.47
2022-12-09T19:24:13.158Z,14.50
2022-12-09T19:26:41.475Z,16.37
2022-12-09T19:29:08.620Z,30.53
2022-12-09T19:31:38.451Z,18.47
2022-12-09T19:34:07.068Z,17.23
2022-12-09T19:36:34.245Z,15.20
2022-12-09T19:39:02.242Z,14.67
2022-12-09T19:41:28.867Z,15.20
2022-12-09T19:43:56.582Z,15.17
2022-12-09T19:46:24.172Z,14.90
2022-12-09T19:48:50.878Z,16.73
2022-12-09T19:51:19.142Z,13.93
2022-12-09T19:53:48.160Z,14.17
2022-12-09T19:56:19.548Z,16.47
2022-12-09T19:58:47.158Z,15.90
2022-12-09T20:01:18.959Z,14.60
2022-12-09T20:03:48.056Z,18.30
2022-12-09T20:06:16.750Z,18.17
2022-12-09T20:08:44.503Z,16.97
2022-12-09T20:11:23.406Z,17.30
2022-12-09T20:13:51.511Z,15.90
2022-12-09T20:16:21.125Z,13.83
2022-12-09T20:18:48.636Z,15.47
2022-12-09T20:21:17.658Z,14.37
2022-12-09T20:23:44.696Z,16.53
2022-12-09T20:26:14.459Z,17.17
2022-12-09T20:28:42.525Z,16.50
2022-12-09T20:31:15.580Z,16.33
2022-12-09T20:33:42.552Z,15.50
2022-12-09T20:36:19.442Z,17.07
2022-12-09T20:38:54.901Z,15.80
2022-12-09T20:41:23.029Z,16.63
2022-12-09T20:43:51.119Z,17.73
2022-12-09T20:46:27.627Z,17.47
2022-12-09T20:48:55.382Z,19.03
2022-12-09T20:51:23.152Z,19.10
2022-12-09T20:53:50.529Z,19.50
2022-12-09T20:56:18.579Z,19.90
2022-12-09T20:58:46.361Z,20.90
2022-12-09T21:01:18.889Z,20.97
2022-12-09T21:03:47.712Z,21.00
2022-12-09T21:06:15.773Z,20.27
2022-12-09T21:08:43.324Z,21.80
2022-12-09T21:11:15.565Z,22.67
2022-12-09T21:13:44.720Z,20.37
2022-12-09T21:16:16.858Z,22.20
2022-12-09T21:18:43.673Z,21.87
2022-12-09T21:21:10.333Z,21.83
2022-12-09T21:23:38.633Z,23.60
2022-12-09T21:26:07.643Z,23.80
2022-12-09T21:28:35.651Z,22.80
2022-12-09T21:31:14.211Z,21.60
2022-12-09T21:33:42.152Z,24.00
2022-12-09T21:36:15.720Z,20.00
2022-12-09T21:38:42.996Z,19.13
2022-12-09T21:41:14.732Z,21.33
2022-12-09T21:43:41.725Z,19.90
2022-12-09T21:46:18.755Z,20.23
2022-12-09T21:48:51.818Z,19.80
2022-12-09T21:51:20.156Z,19.87
2022-12-09T21:53:47.904Z,19.00
2022-12-09T21:56:17.281Z,18.97
2022-12-09T21:58:45.371Z,20.47
2022-12-09T22:01:19.535Z,20.07
2022-12-09T22:03:47.419Z,17.13
2022-12-09T22:06:15.359Z,19.70
2022-12-09T22:08:42.674Z,18.37
2022-12-09T22:11:11.082Z,20.87
2022-12-09T22:13:39.758Z,18.17
2022-12-09T22:16:11.973Z,20.60
2022-12-09T22:18:39.188Z,20.87
2022-12-09T22:21:28.060Z,19.50
2022-12-09T22:23:57.048Z,20.90
2022-12-09T22:26:24.294Z,20.90
2022-12-09T22:28:51.488Z,21.20
2022-12-09T22:31:21.413Z,21.03
2022-12-09T22:33:49.534Z,22.73
2022-12-09T22:36:16.629Z,22.90
2022-12-09T22:38:43.961Z,21.90
2022-12-09T22:41:13.912Z,21.70
2022-12-09T22:43:41.323Z,23.33
2022-12-09T22:46:11.687Z,22.37
2022-12-09T22:48:39.439Z,23.20
2022-12-09T22:51:10.757Z,22.60
2022-12-09T22:53:37.839Z,22.07
2022-12-09T22:56:05.391Z,21.10
2022-12-09T22:58:33.739Z,21.80
2022-12-09T23:01:00.659Z,20.93
2022-12-09T23:03:27.597Z,20.90
2022-12-09T23:05:54.347Z,21.50
2022-12-09T23:08:21.040Z,21.13
2022-12-09T23:10:47.656Z,20.20
2022-12-09T23:13:14.246Z,20.60
2022-12-09T23:15:40.916Z,21.73
2022-12-09T23:18:07.534Z,23.40
2022-12-09T23:20:34.575Z,24.93
2022-12-09T23:23:01.176Z,23.50
2022-12-09T23:25:27.775Z,22.37
2022-12-09T23:27:54.357Z,21.13
2022-12-09T23:30:20.955Z,24.07
2022-12-09T23:32:47.670Z,21.77
2022-12-09T23:35:14.315Z,23.17
2022-12-09T23:37:40.959Z,20.57
2022-12-09T23:40:08.545Z,22.83
2022-12-09T23:42:35.356Z,22.60
2022-12-09T23:45:01.974Z,23.67
2022-12-09T23:47:28.583Z,21.77
2022-12-09T23:49:55.465Z,21.77
2022-12-09T23:52:22.096Z,21.60
2022-12-09T23:54:48.689Z,23.27
2022-12-09T23:57:15.322Z,22.33
2022-12-09T23:59:41.909Z,21.90
